sensor_id;sensor_type;location;lat;lon;timestamp;temperature;humidity
40450;DHT22;41787;53.570;10.032;2022-10-31T00:00:50;12.50;99.90
40450;DHT22;41787;53.570;10.032;2022-10-31T00:03:16;12.50;99.90
40450;DHT22;41787;53.570;10.032;2022-10-31T00:05:45;12.50;99.90
40450;DHT22;41787;53.570;10.032;2022-10-31T00:08:10;12.40;99.90
40450;DHT22;41787;53.570;10.032;2022-10-31T00:10:40;12.40;99.90
40450;DHT22;41787;53.570;10.032;2022-10-31T00:13:06;12.40;99.90
40450;DHT22;41787;53.570;10.032;2022-10-31T00:15:36;12.30;99.90
40450;DHT22;41787;53.570;10.032;2022-10-31T00:18:03;12.40;99.90
40450;DHT22;41787;53.570;10.032;2022-10-31T00:20:29;12.40;99.90
40450;DHT22;41787;53.570;10.032;2022-10-31T00:23:02;12.30;99.90
40450;DHT22;41787;53.570;10.032;2022-10-31T00:25:29;12.40;99.90
40450;DHT22;41787;53.570;10.032;2022-10-31T00:27:57;12.30;99.90
40450;DHT22;41787;53.570;10.032;2022-10-31T00:30:23;12.40;99.90
40450;DHT22;41787;53.570;10.032;2022-10-31T00:32:48;12.60;99.90
40450;DHT22;41787;53.570;10.032;2022-10-31T00:35:14;12.70;99.90
40450;DHT22;41787;53.570;10.032;2022-10-31T00:37:40;12.80;99.90
40450;DHT22;41787;53.570;10.032;2022-10-31T00:40:09;12.90;99.90
40450;DHT22;41787;53.570;10.032;2022-10-31T00:42:35;13.00;99.90
40450;DHT22;41787;53.570;10.032;2022-10-31T00:45:00;13.10;99.90
40450;DHT22;41787;53.570;10.032;2022-10-31T00:47:25;13.10;99.90
40450;DHT22;41787;53.570;10.032;2022-10-31T00:49:53;13.20;99.90
40450;DHT22;41787;53.570;10.032;2022-10-31T00:52:19;13.20;99.90
40450;DHT22;41787;53.570;10.032;2022-10-31T00:54:44;13.30;99.90
40450;DHT22;41787;53.570;10.032;2022-10-31T00:57:10;13.40;99.90
40450;DHT22;41787;53.570;10.032;2022-10-31T00:59:35;13.30;99.90
40450;DHT22;41787;53.570;10.032;2022-10-31T01:02:01;13.30;99.90
40450;DHT22;41787;53.570;10.032;2022-10-31T01:04:26;13.30;99.90
40450;DHT22;41787;53.570;10.032;2022-10-31T01:06:52;13.30;99.90
40450;DHT22;41787;53.570;10.032;2022-10-31T01:09:17;13.30;99.90
40450;DHT22;41787;53.570;10.032;2022-10-31T01:11:43;13.30;99.90
40450;DHT22;41787;53.570;10.032;2022-10-31T01:14:09;13.30;99.90
40450;DHT22;41787;53.570;10.032;2022-10-31T01:16:34;13.30;99.90
40450;DHT22;41787;53.570;10.032;2022-10-31T01:19:00;13.20;99.90
40450;DHT22;41787;53.570;10.032;2022-10-31T01:21:27;13.30;99.90
40450;DHT22;41787;53.570;10.032;2022-10-31T01:23:54;13.30;99.90
40450;DHT22;41787;53.570;10.032;2022-10-31T01:26:22;13.30;99.90
40450;DHT22;41787;53.570;10.032;2022-10-31T01:28:56;13.40;99.90
40450;DHT22;41787;53.570;10.032;2022-10-31T01:31:25;13.30;99.90
40450;DHT22;41787;53.570;10.032;2022-10-31T01:33:51;13.30;99.90
40450;DHT22;41787;53.570;10.032;2022-10-31T01:36:20;13.30;99.90
40450;DHT22;41787;53.570;10.032;2022-10-31T01:38:47;13.30;99.90
40450;DHT22;41787;53.570;10.032;2022-10-31T01:41:15;13.40;99.90
40450;DHT22;41787;53.570;10.032;2022-10-31T01:43:43;13.40;99.90
40450;DHT22;41787;53.570;10.032;2022-10-31T01:46:09;13.40;99.90
40450;DHT22;41787;53.570;10.032;2022-10-31T01:48:34;13.40;99.90
40450;DHT22;41787;53.570;10.032;2022-10-31T01:51:00;13.40;99.90
40450;DHT22;41787;53.570;10.032;2022-10-31T01:53:28;13.40;99.90
40450;DHT22;41787;53.570;10.032;2022-10-31T01:55:54;13.40;99.90
40450;DHT22;41787;53.570;10.032;2022-10-31T01:58:22;13.40;99.90
40450;DHT22;41787;53.570;10.032;2022-10-31T02:00:52;13.30;99.90
40450;DHT22;41787;53.570;10.032;2022-10-31T02:03:20;13.30;99.90
40450;DHT22;41787;53.570;10.032;2022-10-31T02:05:47;13.40;99.90
40450;DHT22;41787;53.570;10.032;2022-10-31T02:08:14;13.30;99.90
40450;DHT22;41787;53.570;10.032;2022-10-31T02:10:42;13.30;99.90
40450;DHT22;41787;53.570;10.032;2022-10-31T02:13:09;13.30;99.90
40450;DHT22;41787;53.570;10.032;2022-10-31T02:15:36;13.30;99.90
40450;DHT22;41787;53.570;10.032;2022-10-31T02:18:03;13.30;99.90
40450;DHT22;41787;53.570;10.032;2022-10-31T02:20:39;13.20;99.90
40450;DHT22;41787;53.570;10.032;2022-10-31T02:29:16;13.30;99.90
40450;DHT22;41787;53.570;10.032;2022-10-31T02:31:50;13.20;99.90
40450;DHT22;41787;53.570;10.032;2022-10-31T02:34:36;13.20;99.90
40450;DHT22;41787;53.570;10.032;2022-10-31T02:40:00;13.20;99.90
40450;DHT22;41787;53.570;10.032;2022-10-31T02:42:46;13.50;99.90
40450;DHT22;41787;53.570;10.032;2022-10-31T02:45:30;13.10;99.90
40450;DHT22;41787;53.570;10.032;2022-10-31T02:48:07;13.10;99.90
40450;DHT22;41787;53.570;10.032;2022-10-31T02:50:39;13.10;99.90
40450;DHT22;41787;53.570;10.032;2022-10-31T02:53:05;13.10;99.90
40450;DHT22;41787;53.570;10.032;2022-10-31T02:58:08;13.00;99.90
40450;DHT22;41787;53.570;10.032;2022-10-31T03:00:56;13.00;99.90
40450;DHT22;41787;53.570;10.032;2022-10-31T03:03:41;13.00;99.90
40450;DHT22;41787;53.570;10.032;2022-10-31T03:06:20;12.90;99.90
40450;DHT22;41787;53.570;10.032;2022-10-31T03:09:00;12.90;99.90
40450;DHT22;41787;53.570;10.032;2022-10-31T03:11:39;12.70;99.90
40450;DHT22;41787;53.570;10.032;2022-10-31T03:14:13;12.90;99.90
40450;DHT22;41787;53.570;10.032;2022-10-31T03:16:50;12.50;99.90
40450;DHT22;41787;53.570;10.032;2022-10-31T03:19:28;12.80;99.90
40450;DHT22;41787;53.570;10.032;2022-10-31T03:22:07;12.80;99.90
40450;DHT22;41787;53.570;10.032;2022-10-31T03:24:38;12.80;99.90
40450;DHT22;41787;53.570;10.032;2022-10-31T03:27:06;12.80;99.90
40450;DHT22;41787;53.570;10.032;2022-10-31T03:29:35;13.10;99.90
40450;DHT22;41787;53.570;10.032;2022-10-31T03:32:08;12.80;99.90
40450;DHT22;41787;53.570;10.032;2022-10-31T03:34:36;12.70;99.90
40450;DHT22;41787;53.570;10.032;2022-10-31T03:37:06;12.70;99.90
40450;DHT22;41787;53.570;10.032;2022-10-31T03:39:33;12.70;99.90
40450;DHT22;41787;53.570;10.032;2022-10-31T03:42:12;12.70;99.90
40450;DHT22;41787;53.570;10.032;2022-10-31T03:44:42;12.70;99.90
40450;DHT22;41787;53.570;10.032;2022-10-31T03:47:10;12.60;99.90
40450;DHT22;41787;53.570;10.032;2022-10-31T03:49:35;12.60;99.90
40450;DHT22;41787;53.570;10.032;2022-10-31T03:58:02;12.60;99.90
40450;DHT22;41787;53.570;10.032;2022-10-31T04:00:30;12.60;99.90
40450;DHT22;41787;53.570;10.032;2022-10-31T04:03:00;12.60;99.90
40450;DHT22;41787;53.570;10.032;2022-10-31T04:05:27;12.10;99.90
40450;DHT22;41787;53.570;10.032;2022-10-31T04:07:54;12.60;99.90
40450;DHT22;41787;53.570;10.032;2022-10-31T04:10:22;12.60;99.90
40450;DHT22;41787;53.570;10.032;2022-10-31T04:12:52;12.60;99.90
40450;DHT22;41787;53.570;10.032;2022-10-31T04:15:22;12.60;99.90
40450;DHT22;41787;53.570;10.032;2022-10-31T04:17:51;12.60;99.90
40450;DHT22;41787;53.570;10.032;2022-10-31T04:20:18;12.60;99.90
40450;DHT22;41787;53.570;10.032;2022-10-31T04:22:54;12.60;99.90
40450;DHT22;41787;53.570;10.032;2022-10-31T04:25:19;12.60;99.90
40450;DHT22;41787;53.570;10.032;2022-10-31T04:27:45;12.60;99.90
40450;DHT22;41787;53.570;10.032;2022-10-31T04:30:10;12.50;99.90
40450;DHT22;41787;53.570;10.032;2022-10-31T04:32:36;12.60;99.90
40450;DHT22;41787;53.570;10.032;2022-10-31T04:35:01;12.60;99.90
40450;DHT22;41787;53.570;10.032;2022-10-31T04:37:27;12.60;99.90
40450;DHT22;41787;53.570;10.032;2022-10-31T04:39:52;12.60;99.90
40450;DHT22;41787;53.570;10.032;2022-10-31T04:42:18;12.60;99.90
40450;DHT22;41787;53.570;10.032;2022-10-31T04:44:43;12.60;99.90
40450;DHT22;41787;53.570;10.032;2022-10-31T04:47:09;12.60;99.90
40450;DHT22;41787;53.570;10.032;2022-10-31T04:49:34;12.60;99.90
40450;DHT22;41787;53.570;10.032;2022-10-31T04:52:00;12.60;99.90
